createdAt,value
2023-05-05T16:04:07.398Z,22.17
2023-05-05T16:04:13.751Z,22.30
2023-05-05T16:04:23.701Z,22.38
2023-05-05T16:04:33.603Z,22.45
2023-05-05T16:04:43.789Z,22.52
2023-05-05T16:04:53.975Z,22.59
2023-05-05T16:05:14.182Z,22.70
2023-05-05T16:05:25.391Z,22.78
2023-05-05T16:05:34.380Z,22.84
2023-05-05T16:05:44.444Z,22.89
2023-05-05T16:05:54.714Z,22.96
2023-05-05T16:06:05.833Z,23.01
2023-05-05T16:06:14.951Z,23.04
2023-05-05T16:06:35.825Z,23.37
2023-05-05T16:06:45.483Z,23.44
2023-05-05T16:06:55.353Z,23.49
2023-05-05T16:07:05.498Z,23.52
2023-05-05T16:07:15.750Z,23.56
2023-05-05T16:07:26.825Z,23.59
2023-05-05T16:07:35.860Z,23.63
2023-05-05T16:07:46.106Z,23.64
2023-05-05T16:07:55.964Z,23.63
2023-05-05T16:08:06.333Z,23.67
2023-05-05T16:08:16.473Z,23.67
2023-05-05T16:08:26.875Z,23.69
2023-05-05T16:08:36.875Z,23.71
2023-05-05T16:08:46.942Z,23.69
2023-05-05T16:09:00.581Z,23.71
2023-05-05T16:09:13.587Z,23.67
2023-05-05T16:09:19.440Z,23.68
2023-05-05T16:09:30.423Z,23.69
2023-05-05T16:09:39.749Z,23.69
2023-05-05T16:09:50.070Z,23.71
2023-05-05T16:10:00.894Z,23.71
2023-05-05T16:10:20.427Z,23.74
2023-05-05T16:10:30.457Z,23.74
2023-05-05T16:10:40.678Z,23.77
2023-05-05T16:10:50.729Z,23.78
2023-05-05T16:11:00.677Z,23.79
2023-05-05T16:11:12.726Z,23.82
2023-05-05T16:11:38.956Z,23.82
2023-05-05T16:11:45.317Z,23.94
2023-05-05T16:11:55.241Z,24.08
2023-05-05T16:12:05.885Z,24.12
2023-05-05T16:12:15.453Z,24.15
2023-05-05T16:12:25.480Z,24.15
2023-05-05T16:12:45.637Z,24.18
2023-05-05T16:12:55.904Z,24.19
2023-05-05T16:13:06.896Z,24.19
2023-05-05T16:13:16.042Z,24.21
2023-05-05T16:13:26.355Z,24.23
2023-05-05T16:13:36.285Z,24.23
2023-05-05T16:13:46.441Z,24.26
2023-05-05T16:13:56.537Z,24.26
2023-05-05T16:14:17.037Z,24.27
2023-05-05T16:14:27.106Z,24.26
2023-05-05T16:14:37.108Z,24.26
2023-05-05T16:14:47.818Z,24.23
2023-05-05T16:14:59.059Z,24.19
2023-05-05T16:15:08.032Z,24.16
2023-05-05T16:15:17.663Z,24.15
2023-05-05T16:15:27.942Z,24.12
2023-05-05T16:15:38.255Z,24.11
2023-05-05T16:15:48.122Z,24.08
2023-05-05T16:16:07.989Z,24.06
2023-05-05T16:16:18.738Z,24.05
2023-05-05T16:16:28.316Z,24.05
2023-05-05T16:16:38.418Z,24.05
2023-05-05T16:16:49.239Z,24.06
2023-05-05T16:16:58.744Z,24.06
2023-05-05T16:17:08.620Z,24.08
2023-05-05T16:17:22.632Z,24.08
2023-05-05T16:17:29.342Z,24.08
2023-05-05T16:17:40.178Z,24.08
2023-05-05T16:17:49.594Z,24.05
2023-05-05T16:17:59.718Z,24.05
2023-05-05T16:18:11.151Z,24.04
2023-05-05T16:18:29.689Z,24.00
2023-05-05T16:18:41.383Z,23.97
2023-05-05T16:18:50.076Z,23.93
2023-05-05T16:19:00.745Z,23.92
2023-05-05T16:20:38.409Z,23.86
2023-05-05T16:20:45.111Z,23.71
2023-05-05T16:20:54.437Z,23.74
2023-05-05T16:21:04.599Z,23.78
2023-05-05T16:21:14.966Z,23.78
2023-05-05T16:21:24.686Z,23.82
2023-05-05T16:21:44.093Z,23.89
2023-05-05T16:21:55.270Z,23.89
2023-05-05T16:22:06.440Z,23.92
2023-05-05T16:22:15.408Z,23.92
2023-05-05T16:22:25.596Z,23.93
2023-05-05T16:22:35.715Z,23.93
2023-05-05T16:22:45.863Z,23.96
2023-05-05T16:22:55.881Z,23.94
2023-05-05T16:23:16.128Z,23.96
2023-05-05T16:23:26.334Z,23.97
2023-05-05T16:23:36.510Z,23.99
2023-05-05T16:23:46.499Z,24.04
2023-05-05T16:23:56.792Z,24.05
2023-05-05T16:24:06.770Z,24.06
2023-05-05T16:24:16.923Z,24.06
2023-05-05T16:24:26.989Z,24.09
2023-05-05T16:24:39.381Z,24.09
2023-05-05T16:24:47.230Z,24.11
2023-05-05T16:24:57.477Z,24.12
2023-05-05T16:25:07.550Z,24.11
2023-05-05T16:25:17.672Z,24.11
2023-05-05T16:25:27.728Z,24.11
2023-05-05T16:25:47.097Z,24.12
2023-05-05T16:25:58.186Z,24.12
2023-05-05T16:26:08.363Z,24.12
2023-05-05T16:26:18.430Z,24.15
2023-05-05T16:26:28.625Z,24.15
2023-05-05T16:26:38.658Z,24.16
2023-05-05T16:26:48.800Z,24.18
2023-05-05T16:26:58.908Z,24.18
2023-05-05T16:27:08.966Z,24.19
2023-05-05T16:27:20.184Z,24.23
2023-05-05T16:27:30.158Z,24.24
2023-05-05T16:27:40.566Z,24.27
2023-05-05T16:27:49.700Z,24.29
2023-05-05T16:27:59.552Z,24.33
2023-05-05T16:28:09.825Z,24.36
2023-05-05T16:28:32.740Z,24.37
2023-05-05T16:28:42.878Z,24.39
2023-05-05T16:28:50.251Z,24.39
2023-05-05T16:29:00.445Z,24.41
2023-05-05T16:29:10.488Z,24.42
2023-05-05T16:29:20.694Z,24.41
2023-05-05T16:29:42.661Z,24.46
2023-05-05T16:29:51.088Z,24.48
2023-05-05T16:30:01.109Z,24.48
2023-05-05T16:30:11.324Z,24.49
2023-05-05T16:30:21.407Z,24.49
2023-05-05T16:30:31.475Z,24.49
2023-05-05T16:30:52.062Z,24.51
2023-05-05T16:31:02.085Z,24.51
2023-05-05T16:31:12.395Z,24.49
2023-05-05T16:31:22.343Z,24.49
2023-05-05T16:31:32.748Z,24.49
2023-05-05T16:31:42.724Z,24.48
2023-05-05T16:31:52.656Z,24.48
2023-05-05T16:32:02.817Z,24.48
2023-05-05T16:32:12.860Z,24.48
2023-05-05T16:32:23.213Z,24.48
2023-05-05T16:32:33.140Z,24.48
2023-05-05T16:32:43.901Z,24.49
2023-05-05T16:32:53.483Z,24.48
2023-05-05T16:33:03.665Z,24.48
2023-05-05T16:33:14.077Z,24.46
2023-05-05T16:33:24.168Z,24.46
2023-05-05T16:33:33.802Z,24.46
2023-05-05T16:33:44.091Z,24.48
2023-05-05T16:33:54.140Z,24.48
2023-05-05T16:34:04.206Z,24.49
2023-05-05T16:34:14.530Z,24.48
2023-05-05T16:34:24.524Z,24.46
2023-05-05T16:34:34.621Z,24.48
2023-05-05T16:34:45.161Z,24.46
2023-05-05T16:34:54.948Z,24.48
2023-05-05T16:35:05.237Z,24.46
2023-05-05T16:35:15.336Z,24.49
2023-05-05T16:35:25.415Z,24.51
2023-05-05T16:35:35.590Z,24.49
2023-05-05T16:35:45.604Z,24.48
2023-05-05T16:35:55.900Z,24.48
2023-05-05T16:36:05.806Z,24.46
2023-05-05T16:36:15.985Z,24.45
2023-05-05T16:36:26.169Z,24.44
2023-05-05T16:36:36.213Z,24.41
2023-05-05T16:36:46.444Z,24.41
2023-05-05T16:36:56.515Z,24.39
2023-05-05T16:37:06.606Z,24.37
2023-05-05T16:37:16.788Z,24.37
2023-05-05T16:37:26.898Z,24.36
2023-05-05T16:37:37.050Z,24.34
2023-05-05T16:37:47.793Z,24.36
2023-05-05T16:37:57.373Z,24.37
2023-05-05T16:38:07.861Z,24.36
2023-05-05T16:38:17.470Z,24.37
2023-05-05T16:38:27.676Z,24.36
2023-05-05T16:38:37.840Z,24.34
2023-05-05T16:38:47.992Z,24.34
2023-05-05T16:38:57.970Z,24.31
2023-05-05T16:39:08.134Z,24.30
2023-05-05T16:39:18.495Z,24.31
2023-05-05T16:39:28.360Z,24.30
2023-05-05T16:39:38.478Z,24.29
2023-05-05T16:39:48.621Z,24.29
2023-05-05T16:39:58.819Z,24.29
2023-05-05T16:40:08.900Z,24.29
2023-05-05T16:40:18.979Z,24.27
2023-05-05T16:40:29.237Z,24.27
2023-05-05T16:40:39.280Z,24.26
2023-05-05T16:40:49.496Z,24.24
2023-05-05T16:40:59.596Z,24.24
2023-05-05T16:41:09.769Z,24.24
2023-05-05T16:41:19.719Z,24.21
2023-05-05T16:41:30.011Z,24.21
2023-05-05T16:41:41.294Z,24.19
2023-05-05T16:41:54.293Z,24.19
2023-05-05T16:42:06.874Z,24.15
2023-05-05T16:42:13.381Z,24.06
2023-05-05T16:42:25.317Z,24.08
2023-05-05T16:42:37.024Z,24.04
2023-05-05T16:42:46.262Z,23.99
2023-05-05T16:42:55.315Z,23.99
2023-05-05T16:43:17.901Z,23.96
2023-05-05T16:43:25.610Z,23.93
2023-05-05T16:43:35.854Z,23.94
2023-05-05T16:43:46.132Z,23.93
2023-05-05T16:43:58.292Z,23.93
2023-05-05T16:44:06.140Z,23.92
2023-05-05T16:44:23.330Z,23.90
2023-05-05T16:44:38.748Z,23.89
2023-05-05T16:44:44.812Z,23.87
2023-05-05T16:44:55.274Z,23.89
2023-05-05T16:45:06.464Z,23.87
2023-05-05T16:45:15.542Z,23.89
2023-05-05T16:45:28.112Z,23.89
2023-05-05T16:45:51.296Z,23.89
2023-05-05T16:45:59.934Z,23.89
2023-05-05T16:46:11.280Z,23.86
2023-05-05T16:46:18.137Z,23.87
2023-05-05T16:46:28.137Z,23.89
2023-05-05T16:46:43.906Z,23.89
2023-05-05T16:47:01.516Z,23.92
2023-05-05T16:47:09.489Z,23.92
2023-05-05T16:47:20.612Z,23.94
2023-05-05T16:47:29.754Z,23.94
2023-05-05T16:47:40.709Z,23.96
2023-05-05T16:47:55.272Z,23.94
2023-05-05T16:48:57.169Z,23.94
2023-05-05T16:49:06.563Z,23.96
2023-05-05T16:49:12.395Z,24.00
2023-05-05T16:49:22.690Z,24.04
2023-05-05T16:49:32.803Z,24.04
2023-05-05T16:49:43.466Z,24.04
2023-05-05T16:50:03.192Z,24.04
2023-05-05T16:50:13.254Z,24.02
2023-05-05T16:50:23.301Z,23.99
2023-05-05T16:50:33.514Z,23.96
2023-05-05T16:50:43.646Z,23.94
2023-05-05T16:50:53.833Z,23.94
2023-05-05T16:51:04.023Z,23.93
2023-05-05T16:51:14.014Z,23.89
2023-05-05T16:51:24.240Z,23.87
2023-05-05T16:51:34.251Z,23.87
2023-05-05T16:51:44.435Z,23.84
2023-05-05T16:51:54.475Z,23.82
2023-05-05T16:52:04.737Z,23.81
2023-05-05T16:52:18.789Z,23.82
2023-05-05T16:52:25.167Z,23.78
2023-05-05T16:52:35.263Z,23.79
2023-05-05T16:52:45.235Z,23.78
2023-05-05T16:53:01.535Z,23.78
2023-05-05T16:53:10.538Z,23.75
